Time;durP1;ratioP1;P1;durP2;ratioP2;P2;SDS_P1;SDS_P2;PMS_P1;PMS_P2;Temp;Humidity;BMP_temperature;BMP_pressure;BME280_temperature;BME280_humidity;BME280_pressure;Samples;Min_cycle;Max_cycle;Signal;HPM_P1;HPM_P2
2022/07/29 00:00:10;;;;;;;4.87;1.50;;;;;;;;;;5048454;28;20049;-57
2022/07/29 00:02:36;;;;;;;3.17;1.27;;;;;;;;;;5047447;28;20140;-58
2022/07/29 00:05:03;;;;;;;3.93;1.20;;;;;;;;;;5048542;28;20128;-57
2022/07/29 00:07:29;;;;;;;3.40;1.30;;;;;;;;;;5048542;28;20049;-58
2022/07/29 00:09:55;;;;;;;2.77;1.43;;;;;;;;;;5047920;28;20059;-58
2022/07/29 00:12:22;;;;;;;2.90;1.43;;;;;;;;;;5048273;28;20420;-59
2022/07/29 00:14:48;;;;;;;3.73;1.70;;;;;;;;;;5047468;28;20048;-58
2022/07/29 00:17:14;;;;;;;5.67;1.77;;;;;;;;;;5047771;28;20738;-58
2022/07/29 00:19:41;;;;;;;7.77;1.63;;;;;;;;;;5047428;28;20049;-58
2022/07/29 00:22:07;;;;;;;5.57;1.43;;;;;;;;;;5047833;28;20567;-57
2022/07/29 00:24:33;;;;;;;3.60;2.07;;;;;;;;;;5047825;28;20148;-58
2022/07/29 00:26:59;;;;;;;4.73;1.50;;;;;;;;;;5047082;28;20127;-59
2022/07/29 00:29:25;;;;;;;2.67;1.20;;;;;;;;;;5047627;28;20045;-58
2022/07/29 00:31:51;;;;;;;4.47;1.30;;;;;;;;;;5047531;28;20045;-59
2022/07/29 00:37:02;;;;;;;5.07;1.70;;;;;;;;;;5047236;28;20127;-58
2022/07/29 00:39:28;;;;;;;6.13;1.53;;;;;;;;;;5047633;28;20053;-58
2022/07/29 00:41:54;;;;;;;4.77;1.40;;;;;;;;;;5047656;28;20043;-58
2022/07/29 00:44:20;;;;;;;4.93;1.40;;;;;;;;;;5047173;28;20059;-59
2022/07/29 00:46:46;;;;;;;3.80;1.93;;;;;;;;;;5047235;28;20546;-58
2022/07/29 00:49:13;;;;;;;4.10;1.60;;;;;;;;;;5047374;28;20052;-58
2022/07/29 00:51:39;;;;;;;7.43;1.90;;;;;;;;;;5047336;28;20300;-58
2022/07/29 00:54:06;;;;;;;5.10;1.87;;;;;;;;;;5050631;28;20091;-58
2022/07/29 00:56:32;;;;;;;8.03;2.00;;;;;;;;;;5050982;28;20044;-58
2022/07/29 00:58:58;;;;;;;4.67;1.93;;;;;;;;;;5051420;28;20096;-58
2022/07/29 01:01:24;;;;;;;3.30;1.30;;;;;;;;;;5051552;28;20531;-58
2022/07/29 01:03:51;;;;;;;4.77;1.77;;;;;;;;;;5051014;28;20044;-58
2022/07/29 01:06:20;;;;;;;8.33;1.93;;;;;;;;;;5051895;28;20114;-58
2022/07/29 01:08:47;;;;;;;3.40;1.90;;;;;;;;;;5051640;28;20407;-58
2022/07/29 01:11:14;;;;;;;3.70;1.73;;;;;;;;;;5051652;28;20044;-58
2022/07/29 01:13:41;;;;;;;4.13;1.50;;;;;;;;;;5051094;28;20045;-57
2022/07/29 01:16:10;;;;;;;3.83;1.70;;;;;;;;;;5051651;28;20049;-58
2022/07/29 01:18:39;;;;;;;2.97;1.60;;;;;;;;;;5051609;28;20474;-58
2022/07/29 01:21:05;;;;;;;3.53;1.50;;;;;;;;;;5051539;28;20045;-58
2022/07/29 01:23:43;;;;;;;7.00;1.63;;;;;;;;;;5050693;28;21331;-57
2022/07/29 01:26:22;;;;;;;3.13;1.30;;;;;;;;;;5051251;28;20041;-58
2022/07/29 01:29:03;;;;;;;4.53;1.63;;;;;;;;;;5051085;28;20485;-58
2022/07/29 01:31:35;;;;;;;6.17;1.43;;;;;;;;;;5050965;28;20040;-59
2022/07/29 01:34:07;;;;;;;3.70;1.77;;;;;;;;;;5050985;28;20564;-58
2022/07/29 01:36:40;;;;;;;4.40;1.93;;;;;;;;;;5050622;28;20517;-58
2022/07/29 01:39:10;;;;;;;3.33;1.80;;;;;;;;;;5051028;28;20121;-58
2022/07/29 01:41:39;;;;;;;5.20;1.70;;;;;;;;;;5050725;28;20477;-58
2022/07/29 01:44:27;;;;;;;3.60;1.70;;;;;;;;;;5050403;28;20049;-59
2022/07/29 01:46:56;;;;;;;6.83;1.93;;;;;;;;;;5050635;28;20056;-57
2022/07/29 01:49:24;;;;;;;6.40;2.17;;;;;;;;;;5050928;28;20053;-58
2022/07/29 01:51:57;;;;;;;5.33;2.17;;;;;;;;;;5050662;28;20189;-57
2022/07/29 01:54:29;;;;;;;2.88;1.55;;;;;;;;;;5050825;28;20045;-58
2022/07/29 01:56:56;;;;;;;3.07;1.60;;;;;;;;;;5050886;28;20037;-58
2022/07/29 01:59:24;;;;;;;4.43;1.70;;;;;;;;;;5049807;28;20048;-59
2022/07/29 02:01:51;;;;;;;5.60;1.47;;;;;;;;;;5050867;28;20407;-57
2022/07/29 02:04:18;;;;;;;3.40;1.47;;;;;;;;;;5049854;28;20114;-58
2022/07/29 02:06:45;;;;;;;3.93;1.73;;;;;;;;;;5049804;28;20057;-58
2022/07/29 02:09:12;;;;;;;4.87;2.03;;;;;;;;;;5050652;28;20072;-58
2022/07/29 02:11:39;;;;;;;5.33;1.70;;;;;;;;;;5050422;28;20040;-58
2022/07/29 02:14:05;;;;;;;5.37;1.80;;;;;;;;;;5050876;28;20041;-58
2022/07/29 02:16:32;;;;;;;5.50;2.00;;;;;;;;;;5050093;28;20052;-58
2022/07/29 02:18:59;;;;;;;3.93;1.67;;;;;;;;;;5050172;28;20196;-58
2022/07/29 02:21:27;;;;;;;7.10;2.20;;;;;;;;;;5050393;28;20041;-57
2022/07/29 02:23:54;;;;;;;6.23;2.07;;;;;;;;;;5050340;28;20049;-58
2022/07/29 02:26:21;;;;;;;3.30;2.00;;;;;;;;;;5049721;28;20048;-58
2022/07/29 02:28:49;;;;;;;3.10;1.57;;;;;;;;;;5049825;28;20731;-58
2022/07/29 02:31:17;;;;;;;4.73;1.77;;;;;;;;;;5049974;28;20491;-58
2022/07/29 02:33:43;;;;;;;6.87;1.80;;;;;;;;;;5049387;28;20045;-58
2022/07/29 02:36:09;;;;;;;7.40;2.37;;;;;;;;;;5050017;28;20139;-58
2022/07/29 02:38:51;;;;;;;4.13;1.90;;;;;;;;;;5050162;28;20511;-58
2022/07/29 02:41:19;;;;;;;4.27;1.30;;;;;;;;;;5050067;28;20045;-58
2022/07/29 02:43:47;;;;;;;4.90;1.60;;;;;;;;;;5049602;28;20525;-58
2022/07/29 02:46:19;;;;;;;4.27;1.70;;;;;;;;;;5049685;28;20080;-58
2022/07/29 02:48:52;;;;;;;3.63;1.60;;;;;;;;;;5049984;28;21090;-57
2022/07/29 02:51:28;;;;;;;9.13;2.08;;;;;;;;;;5049751;28;20687;-57
2022/07/29 02:53:56;;;;;;;5.77;2.10;;;;;;;;;;5049952;28;20048;-58
2022/07/29 02:56:24;;;;;;;4.57;1.80;;;;;;;;;;5047915;28;20479;-58
2022/07/29 02:58:54;;;;;;;5.17;1.50;;;;;;;;;;5049701;28;20041;-58
2022/07/29 03:01:22;;;;;;;3.67;1.77;;;;;;;;;;5049710;28;20059;-58
2022/07/29 03:03:49;;;;;;;4.57;1.40;;;;;;;;;;5049334;28;20053;-59
2022/07/29 03:06:15;;;;;;;4.00;1.57;;;;;;;;;;5048961;28;20622;-59
2022/07/29 03:08:42;;;;;;;5.13;1.77;;;;;;;;;;5049608;28;20389;-58
2022/07/29 03:11:09;;;;;;;5.20;1.90;;;;;;;;;;5049046;28;20465;-58
2022/07/29 03:13:35;;;;;;;2.53;1.40;;;;;;;;;;5049365;28;20045;-57
2022/07/29 03:16:02;;;;;;;6.70;1.67;;;;;;;;;;5049117;28;20044;-58
2022/07/29 03:18:28;;;;;;;3.00;1.67;;;;;;;;;;5049159;28;20041;-58
2022/07/29 03:20:54;;;;;;;3.30;1.83;;;;;;;;;;5048751;28;20049;-58
2022/07/29 03:23:22;;;;;;;5.47;2.33;;;;;;;;;;5048904;28;20044;-58
2022/07/29 03:25:48;;;;;;;7.10;1.80;;;;;;;;;;5048937;28;20055;-58
2022/07/29 03:28:15;;;;;;;4.10;1.93;;;;;;;;;;5049231;28;20047;-58
2022/07/29 03:30:41;;;;;;;4.80;1.50;;;;;;;;;;5048825;28;20041;-58
2022/07/29 03:33:07;;;;;;;5.57;2.03;;;;;;;;;;5049274;28;20088;-58
2022/07/29 03:35:33;;;;;;;3.23;1.70;;;;;;;;;;5048486;28;20151;-58
2022/07/29 03:37:59;;;;;;;5.63;2.27;;;;;;;;;;5048981;28;20048;-58
2022/07/29 03:40:31;;;;;;;4.97;1.53;;;;;;;;;;5048645;28;20056;-57
2022/07/29 03:42:58;;;;;;;6.37;2.10;;;;;;;;;;5048891;28;20111;-57
2022/07/29 03:45:25;;;;;;;3.87;1.70;;;;;;;;;;5048012;28;20398;-58
2022/07/29 03:47:56;;;;;;;3.03;1.73;;;;;;;;;;5048401;28;20122;-58
2022/07/29 03:50:22;;;;;;;6.83;1.90;;;;;;;;;;5048661;28;20156;-58
2022/07/29 03:52:49;;;;;;;3.20;1.40;;;;;;;;;;5048265;28;20060;-58
2022/07/29 03:55:16;;;;;;;3.37;1.80;;;;;;;;;;5048678;28;20044;-58
2022/07/29 03:57:43;;;;;;;9.53;2.20;;;;;;;;;;5047824;28;20045;-58
2022/07/29 04:00:09;;;;;;;3.43;1.80;;;;;;;;;;5048144;28;20143;-58
2022/07/29 04:02:36;;;;;;;2.73;1.40;;;;;;;;;;5048688;28;20080;-58
2022/07/29 04:05:02;;;;;;;5.83;1.90;;;;;;;;;;5048435;28;20040;-57
2022/07/29 04:07:29;;;;;;;5.23;2.17;;;;;;;;;;5048426;28;20053;-57
2022/07/29 04:09:55;;;;;;;4.17;1.73;;;;;;;;;;5047738;28;20499;-58
2022/07/29 04:12:22;;;;;;;5.53;1.90;;;;;;;;;;5048144;28;20542;-57
2022/07/29 04:14:48;;;;;;;4.13;1.70;;;;;;;;;;5047628;28;20061;-58
2022/07/29 04:17:14;;;;;;;4.17;1.77;;;;;;;;;;5048080;28;20144;-58
2022/07/29 04:19:40;;;;;;;4.93;1.57;;;;;;;;;;5047286;28;20087;-58
2022/07/29 04:22:06;;;;;;;4.87;1.70;;;;;;;;;;5046462;28;20076;-59
2022/07/29 04:24:32;;;;;;;6.27;2.10;;;;;;;;;;5047595;28;20051;-58
2022/07/29 04:26:58;;;;;;;8.27;2.10;;;;;;;;;;5047412;28;20048;-58
2022/07/29 04:29:24;;;;;;;4.90;1.80;;;;;;;;;;5047575;28;20041;-58
2022/07/29 04:31:50;;;;;;;4.63;1.90;;;;;;;;;;5046776;28;20074;-58
2022/07/29 04:34:16;;;;;;;3.97;2.07;;;;;;;;;;5047439;28;20414;-58
2022/07/29 04:36:42;;;;;;;6.80;2.00;;;;;;;;;;5047338;28;20099;-58
2022/07/29 04:39:09;;;;;;;7.70;2.03;;;;;;;;;;5046977;28;20499;-59
2022/07/29 04:41:36;;;;;;;5.37;1.90;;;;;;;;;;5047360;28;20146;-58
2022/07/29 04:44:05;;;;;;;6.47;2.03;;;;;;;;;;5047022;28;20052;-58
2022/07/29 04:46:31;;;;;;;5.13;2.03;;;;;;;;;;5047167;28;20164;-58
2022/07/29 04:48:57;;;;;;;4.73;1.80;;;;;;;;;;5047219;28;20071;-58
2022/07/29 04:51:23;;;;;;;4.53;1.90;;;;;;;;;;5046777;28;20064;-58
2022/07/29 04:53:49;;;;;;;3.00;1.73;;;;;;;;;;5046809;28;20131;-58
2022/07/29 04:56:15;;;;;;;5.57;1.80;;;;;;;;;;5047595;28;20128;-58
2022/07/29 04:58:41;;;;;;;5.10;2.00;;;;;;;;;;5046981;28;20556;-59
2022/07/29 05:01:07;;;;;;;5.40;1.87;;;;;;;;;;5046849;28;20413;-58
2022/07/29 05:03:33;;;;;;;3.57;1.77;;;;;;;;;;5047424;28;20049;-59
2022/07/29 05:05:59;;;;;;;3.73;2.13;;;;;;;;;;5047557;28;20114;-58
2022/07/29 05:08:25;;;;;;;10.37;1.90;;;;;;;;;;5047248;28;20499;-58
2022/07/29 05:10:51;;;;;;;4.97;2.20;;;;;;;;;;5046522;28;20130;-59
2022/07/29 05:13:17;;;;;;;5.63;2.10;;;;;;;;;;5047385;28;20087;-58
2022/07/29 05:15:43;;;;;;;7.63;2.10;;;;;;;;;;5047527;28;20036;-58
2022/07/29 05:18:09;;;;;;;6.43;1.70;;;;;;;;;;5046885;28;20048;-58
2022/07/29 05:20:35;;;;;;;7.30;1.90;;;;;;;;;;5047043;28;20045;-59
2022/07/29 05:23:03;;;;;;;4.90;1.87;;;;;;;;;;5046834;28;20422;-59
2022/07/29 05:25:30;;;;;;;6.83;2.30;;;;;;;;;;5047114;28;20049;-59
2022/07/29 05:27:56;;;;;;;4.67;1.73;;;;;;;;;;5047076;28;20055;-58
2022/07/29 05:30:22;;;;;;;4.77;1.50;;;;;;;;;;5047042;28;20041;-59
2022/07/29 05:32:48;;;;;;;3.97;1.73;;;;;;;;;;5046948;28;20136;-59
2022/07/29 05:35:15;;;;;;;4.93;1.60;;;;;;;;;;5046670;28;20140;-58
2022/07/29 05:37:41;;;;;;;5.70;1.90;;;;;;;;;;5046930;28;20071;-58
2022/07/29 05:40:08;;;;;;;7.20;1.67;;;;;;;;;;5048553;28;20098;-59
2022/07/29 05:42:34;;;;;;;3.73;1.70;;;;;;;;;;5050840;28;20044;-59
2022/07/29 05:45:00;;;;;;;7.17;1.90;;;;;;;;;;5050080;28;20057;-59
2022/07/29 05:47:26;;;;;;;5.50;1.97;;;;;;;;;;5050580;28;20658;-59
2022/07/29 05:49:53;;;;;;;5.07;1.53;;;;;;;;;;5050757;28;20071;-58
2022/07/29 05:52:19;;;;;;;8.60;2.10;;;;;;;;;;5050612;28;20432;-59
2022/07/29 05:54:45;;;;;;;2.90;1.60;;;;;;;;;;5050308;28;20470;-58
2022/07/29 05:57:18;;;;;;;4.63;1.70;;;;;;;;;;5050047;28;20171;-59
2022/07/29 05:59:44;;;;;;;6.22;2.00;;;;;;;;;;5049737;28;20045;-59
2022/07/29 06:02:11;;;;;;;4.67;1.70;;;;;;;;;;5051020;28;20068;-58
2022/07/29 06:04:37;;;;;;;4.53;1.70;;;;;;;;;;5050713;28;20167;-58
2022/07/29 06:07:03;;;;;;;7.20;1.97;;;;;;;;;;5050299;28;20124;-58
2022/07/29 06:09:29;;;;;;;4.40;1.90;;;;;;;;;;5050422;28;20045;-58
2022/07/29 06:11:55;;;;;;;12.67;3.07;;;;;;;;;;5050611;28;20060;-58
2022/07/29 06:14:21;;;;;;;5.83;1.80;;;;;;;;;;5049710;28;20088;-58
2022/07/29 06:16:47;;;;;;;5.67;1.57;;;;;;;;;;5050172;28;20491;-59
2022/07/29 06:19:13;;;;;;;4.00;1.57;;;;;;;;;;5050210;28;20056;-58
2022/07/29 06:21:45;;;;;;;6.87;1.80;;;;;;;;;;5050756;28;20052;-58
2022/07/29 06:24:12;;;;;;;6.97;1.80;;;;;;;;;;5050176;28;20103;-58
2022/07/29 06:26:39;;;;;;;5.10;1.60;;;;;;;;;;5049397;28;20392;-58
2022/07/29 06:29:05;;;;;;;5.80;1.63;;;;;;;;;;5049860;28;20756;-58
2022/07/29 06:31:31;;;;;;;7.97;2.00;;;;;;;;;;5049889;28;20037;-58
2022/07/29 06:33:57;;;;;;;5.67;1.97;;;;;;;;;;5050273;28;20080;-58
2022/07/29 06:36:23;;;;;;;3.33;1.70;;;;;;;;;;5049477;28;20507;-58
2022/07/29 06:38:49;;;;;;;4.93;1.70;;;;;;;;;;5048463;28;20053;-58
2022/07/29 06:41:15;;;;;;;4.43;1.93;;;;;;;;;;5049411;28;20049;-58
2022/07/29 06:43:42;;;;;;;4.90;2.00;;;;;;;;;;5049499;28;20057;-58
2022/07/29 06:46:12;;;;;;;3.80;1.60;;;;;;;;;;5049622;28;20409;-58
2022/07/29 06:48:39;;;;;;;6.37;1.73;;;;;;;;;;5049736;28;20045;-58
2022/07/29 06:51:05;;;;;;;3.70;1.77;;;;;;;;;;5048665;28;20089;-58
2022/07/29 06:53:32;;;;;;;7.70;1.83;;;;;;;;;;5049155;28;20419;-58
2022/07/29 06:55:59;;;;;;;7.07;1.90;;;;;;;;;;5049549;28;20045;-58
2022/07/29 06:58:25;;;;;;;8.17;1.80;;;;;;;;;;5049143;28;20053;-58
2022/07/29 07:00:51;;;;;;;5.30;2.17;;;;;;;;;;5049224;28;20087;-58
2022/07/29 07:03:18;;;;;;;4.97;2.00;;;;;;;;;;5049039;28;20048;-58
2022/07/29 07:05:44;;;;;;;5.23;1.80;;;;;;;;;;5049276;28;20139;-58
2022/07/29 07:08:11;;;;;;;5.40;2.00;;;;;;;;;;5049066;28;20643;-58
2022/07/29 07:10:37;;;;;;;7.80;2.50;;;;;;;;;;5049487;28;20045;-58
2022/07/29 07:13:04;;;;;;;6.43;1.87;;;;;;;;;;5048998;28;20091;-58
2022/07/29 07:15:30;;;;;;;6.33;1.83;;;;;;;;;;5048331;28;20049;-59
2022/07/29 07:17:57;;;;;;;7.90;1.77;;;;;;;;;;5048411;28;20128;-59
2022/07/29 07:20:23;;;;;;;5.57;1.87;;;;;;;;;;5048752;28;20294;-58
2022/07/29 07:22:49;;;;;;;3.50;1.50;;;;;;;;;;5048288;28;20518;-58
2022/07/29 07:25:17;;;;;;;7.20;2.10;;;;;;;;;;5048782;28;20411;-59
2022/07/29 07:27:43;;;;;;;5.53;1.63;;;;;;;;;;5048523;28;20052;-59
2022/07/29 07:30:09;;;;;;;4.77;1.57;;;;;;;;;;5048850;28;20704;-59
2022/07/29 07:32:36;;;;;;;4.33;1.80;;;;;;;;;;5048514;28;20052;-59
2022/07/29 07:35:02;;;;;;;8.20;1.50;;;;;;;;;;5048737;28;20037;-59
2022/07/29 07:37:28;;;;;;;4.40;1.87;;;;;;;;;;5048174;28;20144;-59
2022/07/29 07:39:54;;;;;;;8.07;1.73;;;;;;;;;;5048559;28;20047;-58
2022/07/29 07:42:20;;;;;;;3.47;1.87;;;;;;;;;;5048653;28;20037;-59
2022/07/29 07:44:48;;;;;;;6.03;1.97;;;;;;;;;;5047940;28;20502;-59
2022/07/29 07:47:14;;;;;;;3.37;1.53;;;;;;;;;;5048449;28;20045;-58
2022/07/29 07:49:40;;;;;;;7.50;1.60;;;;;;;;;;5047990;28;20466;-59
2022/07/29 07:52:06;;;;;;;5.60;1.80;;;;;;;;;;5048262;28;20049;-59
2022/07/29 07:54:32;;;;;;;6.17;2.10;;;;;;;;;;5047924;28;20041;-59
2022/07/29 07:56:58;;;;;;;6.53;1.93;;;;;;;;;;5048582;28;20131;-59
2022/07/29 07:59:24;;;;;;;4.07;1.63;;;;;;;;;;5047528;28;20480;-59
2022/07/29 08:01:50;;;;;;;7.10;2.10;;;;;;;;;;5047945;28;20120;-59
2022/07/29 08:04:16;;;;;;;5.20;2.00;;;;;;;;;;5048008;28;20045;-59
2022/07/29 08:06:42;;;;;;;5.50;2.00;;;;;;;;;;5049352;28;20552;-59
2022/07/29 08:09:09;;;;;;;4.87;2.40;;;;;;;;;;5067406;28;20041;-58
2022/07/29 08:11:35;;;;;;;4.47;2.47;;;;;;;;;;5068542;28;20123;-59
2022/07/29 08:14:01;;;;;;;3.93;2.37;;;;;;;;;;5064804;28;20041;-59
2022/07/29 08:16:27;;;;;;;8.27;2.97;;;;;;;;;;5048815;28;20597;-58
2022/07/29 08:18:56;;;;;;;4.97;2.20;;;;;;;;;;5048159;28;20037;-59
2022/07/29 08:21:23;;;;;;;6.60;2.03;;;;;;;;;;5048339;28;20045;-59
2022/07/29 08:23:52;;;;;;;9.90;2.90;;;;;;;;;;5046494;28;20112;-59
2022/07/29 08:26:18;;;;;;;8.43;2.40;;;;;;;;;;5047953;28;20076;-59
2022/07/29 08:28:45;;;;;;;8.63;3.30;;;;;;;;;;5049067;28;20118;-59
2022/07/29 08:31:11;;;;;;;8.93;3.33;;;;;;;;;;5047742;28;20077;-59
2022/07/29 08:33:37;;;;;;;6.67;3.00;;;;;;;;;;5065126;28;20041;-60
2022/07/29 08:36:04;;;;;;;5.20;2.80;;;;;;;;;;5068285;28;20102;-60
2022/07/29 08:38:30;;;;;;;5.83;2.60;;;;;;;;;;5068299;28;20048;-59
2022/07/29 08:40:56;;;;;;;4.50;2.70;;;;;;;;;;5050314;28;20114;-59
2022/07/29 08:43:22;;;;;;;6.40;2.43;;;;;;;;;;5047923;28;20044;-59
2022/07/29 08:45:49;;;;;;;6.00;3.00;;;;;;;;;;5048146;28;20096;-59
2022/07/29 08:48:18;;;;;;;6.03;2.40;;;;;;;;;;5048667;28;20572;-59
2022/07/29 08:50:44;;;;;;;5.43;2.00;;;;;;;;;;5048366;28;20067;-59
2022/07/29 08:53:12;;;;;;;6.63;3.00;;;;;;;;;;5048648;28;20053;-60
2022/07/29 08:55:43;;;;;;;6.83;2.97;;;;;;;;;;5049622;28;20064;-61
2022/07/29 08:58:09;;;;;;;4.43;2.60;;;;;;;;;;5065911;28;20411;-60
2022/07/29 09:00:36;;;;;;;4.67;2.23;;;;;;;;;;5068060;28;20048;-59
2022/07/29 09:03:04;;;;;;;7.63;2.33;;;;;;;;;;5068576;28;20131;-59
2022/07/29 09:05:32;;;;;;;5.77;2.10;;;;;;;;;;5068558;28;20466;-59
2022/07/29 09:07:58;;;;;;;8.03;2.40;;;;;;;;;;5050806;28;20156;-59
2022/07/29 09:10:24;;;;;;;5.90;2.00;;;;;;;;;;5057424;28;20037;-60
2022/07/29 09:12:50;;;;;;;7.50;1.77;;;;;;;;;;5056362;28;20036;-59
2022/07/29 09:15:16;;;;;;;6.57;2.00;;;;;;;;;;5071827;28;20047;-59
2022/07/29 09:17:46;;;;;;;4.97;1.97;;;;;;;;;;5060270;28;20410;-60
2022/07/29 09:20:14;;;;;;;8.90;2.00;;;;;;;;;;5051904;28;20075;-60
2022/07/29 09:22:40;;;;;;;7.70;2.20;;;;;;;;;;5064971;28;20040;-59
2022/07/29 09:25:06;;;;;;;6.93;2.10;;;;;;;;;;5072003;28;20044;-59
2022/07/29 09:27:34;;;;;;;5.93;1.80;;;;;;;;;;5071272;28;20572;-59
2022/07/29 09:30:00;;;;;;;5.87;2.23;;;;;;;;;;5071167;28;20048;-59
2022/07/29 09:32:27;;;;;;;6.97;2.10;;;;;;;;;;5070256;28;20036;-59
2022/07/29 09:35:12;;;;;;;3.53;1.63;;;;;;;;;;5071697;28;20410;-59
2022/07/29 09:37:38;;;;;;;6.30;1.90;;;;;;;;;;5070394;28;20051;-59
2022/07/29 09:40:11;;;;;;;5.63;2.30;;;;;;;;;;5070524;28;20045;-59
2022/07/29 09:42:37;;;;;;;6.87;2.73;;;;;;;;;;5070331;28;20292;-60
2022/07/29 09:45:04;;;;;;;4.67;2.03;;;;;;;;;;5070489;28;20048;-59
2022/07/29 09:47:46;;;;;;;5.03;1.67;;;;;;;;;;5070075;28;20052;-59
2022/07/29 09:50:14;;;;;;;5.03;1.80;;;;;;;;;;5069260;28;20131;-59
2022/07/29 09:52:45;;;;;;;5.33;1.77;;;;;;;;;;5070434;28;20072;-59
2022/07/29 09:55:12;;;;;;;4.07;1.73;;;;;;;;;;5070484;28;20049;-59
2022/07/29 09:57:38;;;;;;;12.23;2.40;;;;;;;;;;5070331;28;20052;-59
2022/07/29 10:00:05;;;;;;;4.97;1.80;;;;;;;;;;5070235;28;20055;-59
2022/07/29 10:02:32;;;;;;;6.37;2.23;;;;;;;;;;5070604;28;20414;-59
2022/07/29 10:04:59;;;;;;;5.80;1.87;;;;;;;;;;5070380;28;20076;-59
2022/07/29 10:07:25;;;;;;;4.67;1.97;;;;;;;;;;5070402;28;20047;-59
2022/07/29 10:09:56;;;;;;;6.23;1.73;;;;;;;;;;5070085;28;20156;-59
2022/07/29 10:12:22;;;;;;;5.87;1.97;;;;;;;;;;5070539;28;20047;-60
2022/07/29 10:14:49;;;;;;;7.10;2.30;;;;;;;;;;5070093;28;20573;-59
2022/07/29 10:17:16;;;;;;;5.93;2.40;;;;;;;;;;5070011;28;20826;-59
2022/07/29 10:19:42;;;;;;;5.43;1.87;;;;;;;;;;5069750;28;20048;-60
2022/07/29 10:22:08;;;;;;;4.77;1.93;;;;;;;;;;5070224;28;20045;-59
2022/07/29 10:24:35;;;;;;;4.10;2.00;;;;;;;;;;5069332;28;20055;-59
2022/07/29 10:27:02;;;;;;;5.88;1.95;;;;;;;;;;5069068;28;20045;-60
2022/07/29 10:29:31;;;;;;;7.63;2.47;;;;;;;;;;5069966;28;20047;-60
2022/07/29 10:32:15;;;;;;;3.33;2.03;;;;;;;;;;5070111;28;20127;-60
2022/07/29 10:35:00;;;;;;;4.53;2.10;;;;;;;;;;5069255;28;20055;-60
2022/07/29 10:37:43;;;;;;;5.47;2.30;;;;;;;;;;5069939;28;20049;-60
2022/07/29 10:43:22;;;;;;;4.93;2.10;;;;;;;;;;5069162;28;20102;-60
2022/07/29 10:45:49;;;;;;;4.55;1.92;;;;;;;;;;5069636;28;20502;-59
2022/07/29 10:48:15;;;;;;;5.28;2.30;;;;;;;;;;5069178;28;20044;-60
2022/07/29 10:50:56;;;;;;;5.15;2.20;;;;;;;;;;5069164;28;20041;-60
2022/07/29 10:53:23;;;;;;;7.05;2.40;;;;;;;;;;5068610;28;20363;-60
2022/07/29 10:55:50;;;;;;;6.28;2.40;;;;;;;;;;5069317;28;20041;-60
2022/07/29 10:58:16;;;;;;;4.72;2.17;;;;;;;;;;5069129;28;20055;-60
2022/07/29 11:00:42;;;;;;;7.68;2.13;;;;;;;;;;5069287;28;20429;-60
2022/07/29 11:03:08;;;;;;;5.95;1.95;;;;;;;;;;5069161;28;20528;-60
2022/07/29 11:05:54;;;;;;;5.90;2.08;;;;;;;;;;5069026;28;20498;-58
2022/07/29 11:08:23;;;;;;;6.20;2.28;;;;;;;;;;5069051;28;20052;-58
2022/07/29 11:10:49;;;;;;;4.22;2.17;;;;;;;;;;5069365;28;20105;-60
2022/07/29 11:13:34;;;;;;;7.40;2.20;;;;;;;;;;5069055;28;20502;-60
2022/07/29 11:16:00;;;;;;;3.72;1.73;;;;;;;;;;5069125;28;20513;-60
2022/07/29 11:18:26;;;;;;;8.38;2.38;;;;;;;;;;5069067;28;20044;-60
2022/07/29 11:20:55;;;;;;;3.60;1.85;;;;;;;;;;5068202;28;20494;-60
2022/07/29 11:23:23;;;;;;;5.38;2.10;;;;;;;;;;5068776;28;20037;-60
2022/07/29 11:26:08;;;;;;;7.07;2.28;;;;;;;;;;5068775;28;20048;-60
2022/07/29 11:28:34;;;;;;;4.53;2.00;;;;;;;;;;5068092;28;20060;-60
2022/07/29 11:31:01;;;;;;;7.32;2.50;;;;;;;;;;5068719;28;20073;-60
2022/07/29 11:33:31;;;;;;;5.25;2.10;;;;;;;;;;5068769;28;20044;-60
2022/07/29 11:36:17;;;;;;;6.18;2.33;;;;;;;;;;5068769;28;20040;-58
2022/07/29 11:38:43;;;;;;;6.78;2.40;;;;;;;;;;5067388;28;20052;-58
2022/07/29 11:41:12;;;;;;;8.25;2.63;;;;;;;;;;5068254;28;20135;-59
2022/07/29 11:43:51;;;;;;;4.25;1.60;;;;;;;;;;5068056;28;20140;-58
2022/07/29 11:46:37;;;;;;;7.43;2.25;;;;;;;;;;5068390;28;20155;-60
2022/07/29 11:49:04;;;;;;;10.98;2.38;;;;;;;;;;5063974;28;20545;-58
2022/07/29 11:51:30;;;;;;;8.18;1.95;;;;;;;;;;5068393;28;20060;-58
2022/07/29 11:53:58;;;;;;;5.45;1.85;;;;;;;;;;5068310;28;20497;-58
2022/07/29 11:56:26;;;;;;;5.68;2.17;;;;;;;;;;5067808;28;20083;-60
2022/07/29 11:59:03;;;;;;;5.90;2.15;;;;;;;;;;5068274;28;20037;-60
2022/07/29 12:01:29;;;;;;;5.40;2.25;;;;;;;;;;5068291;28;20045;-59
2022/07/29 12:04:08;;;;;;;13.48;2.17;;;;;;;;;;5068228;28;20080;-60
2022/07/29 12:06:35;;;;;;;9.60;2.40;;;;;;;;;;5067742;28;20043;-59
2022/07/29 12:09:01;;;;;;;5.18;2.17;;;;;;;;;;5068205;28;20442;-59
2022/07/29 12:11:27;;;;;;;6.75;2.20;;;;;;;;;;5068831;28;20068;-59
2022/07/29 12:13:53;;;;;;;7.07;2.35;;;;;;;;;;5068740;28;20040;-60
2022/07/29 12:16:20;;;;;;;4.13;1.83;;;;;;;;;;5068971;28;20044;-59
2022/07/29 12:18:56;;;;;;;4.32;2.33;;;;;;;;;;5062584;28;20040;-59
2022/07/29 12:21:23;;;;;;;6.47;2.08;;;;;;;;;;5068578;28;20052;-59
2022/07/29 12:23:55;;;;;;;6.47;2.45;;;;;;;;;;5068961;28;20048;-59
2022/07/29 12:26:21;;;;;;;6.22;2.40;;;;;;;;;;5067284;28;20048;-59
2022/07/29 12:28:47;;;;;;;7.38;2.50;;;;;;;;;;5068864;28;20040;-60
2022/07/29 12:31:14;;;;;;;6.35;1.90;;;;;;;;;;5068826;28;20044;-59
2022/07/29 12:33:40;;;;;;;7.45;2.53;;;;;;;;;;5068548;28;20514;-59
2022/07/29 12:36:06;;;;;;;9.05;2.38;;;;;;;;;;5068807;28;20044;-59
2022/07/29 12:38:32;;;;;;;4.45;2.30;;;;;;;;;;5068678;28;20045;-59
2022/07/29 12:40:58;;;;;;;4.43;2.33;;;;;;;;;;5068348;28;20052;-59
2022/07/29 12:43:25;;;;;;;7.35;1.90;;;;;;;;;;5068406;28;20041;-59
2022/07/29 12:45:53;;;;;;;5.53;2.40;;;;;;;;;;5068599;28;20521;-59
2022/07/29 12:48:33;;;;;;;4.10;1.88;;;;;;;;;;5068493;28;20049;-59
2022/07/29 12:51:01;;;;;;;5.65;2.17;;;;;;;;;;5068260;28;20047;-60
2022/07/29 12:53:27;;;;;;;6.18;2.05;;;;;;;;;;5068719;28;20090;-59
2022/07/29 12:55:54;;;;;;;4.68;2.20;;;;;;;;;;5068554;28;20056;-59
2022/07/29 12:58:28;;;;;;;5.47;1.75;;;;;;;;;;5068586;28;20048;-59
2022/07/29 13:01:01;;;;;;;5.40;1.92;;;;;;;;;;5068421;28;20049;-59
2022/07/29 13:03:27;;;;;;;5.53;2.08;;;;;;;;;;5068052;28;20040;-59
2022/07/29 13:05:53;;;;;;;8.40;2.13;;;;;;;;;;5068415;28;20488;-59
2022/07/29 13:08:19;;;;;;;6.65;2.22;;;;;;;;;;5068449;28;20080;-59
2022/07/29 13:10:45;;;;;;;7.35;1.90;;;;;;;;;;5068495;28;20080;-60
2022/07/29 13:13:12;;;;;;;6.47;1.63;;;;;;;;;;5068409;28;20051;-59
2022/07/29 13:15:39;;;;;;;6.85;2.38;;;;;;;;;;5068282;28;20076;-59
2022/07/29 13:18:25;;;;;;;3.20;1.90;;;;;;;;;;5068397;28;20064;-60
2022/07/29 13:20:51;;;;;;;2.88;1.10;;;;;;;;;;5068219;28;20056;-60
2022/07/29 13:23:17;;;;;;;6.47;1.85;;;;;;;;;;5068116;28;20506;-59
2022/07/29 13:25:43;;;;;;;5.75;1.90;;;;;;;;;;5068119;28;20135;-60
2022/07/29 13:28:11;;;;;;;6.65;1.77;;;;;;;;;;5067691;28;20132;-59
2022/07/29 13:30:37;;;;;;;6.70;1.73;;;;;;;;;;5067777;28;20060;-60
2022/07/29 13:33:03;;;;;;;7.00;1.67;;;;;;;;;;5067755;28;20410;-59
2022/07/29 13:35:29;;;;;;;5.63;1.75;;;;;;;;;;5067926;28;20045;-60
2022/07/29 13:37:55;;;;;;;5.70;1.80;;;;;;;;;;5068019;28;20049;-59
2022/07/29 13:40:21;;;;;;;4.57;1.90;;;;;;;;;;5067865;28;20052;-59
2022/07/29 13:42:47;;;;;;;6.70;1.77;;;;;;;;;;5067364;28;20048;-60
2022/07/29 13:45:14;;;;;;;5.05;2.08;;;;;;;;;;5067586;28;20178;-60
2022/07/29 13:47:40;;;;;;;5.65;1.52;;;;;;;;;;5067751;28;20051;-60
2022/07/29 13:50:07;;;;;;;9.60;2.45;;;;;;;;;;5067978;28;20041;-61
2022/07/29 13:52:33;;;;;;;5.20;1.58;;;;;;;;;;5067841;28;20079;-60
2022/07/29 13:54:59;;;;;;;5.32;1.50;;;;;;;;;;5067630;28;20040;-60
2022/07/29 13:57:25;;;;;;;5.43;1.55;;;;;;;;;;5067639;28;20037;-60
2022/07/29 13:59:51;;;;;;;3.40;1.58;;;;;;;;;;5067868;28;20101;-60
2022/07/29 14:02:17;;;;;;;9.25;1.83;;;;;;;;;;5070573;28;20403;-60
2022/07/29 14:04:44;;;;;;;6.63;1.50;;;;;;;;;;5071373;28;20036;-60
2022/07/29 14:07:10;;;;;;;4.25;1.30;;;;;;;;;;5071382;28;20382;-60
2022/07/29 14:09:36;;;;;;;5.72;1.42;;;;;;;;;;5071299;28;20517;-60
2022/07/29 14:12:02;;;;;;;5.10;1.33;;;;;;;;;;5071097;28;20495;-60
2022/07/29 14:14:29;;;;;;;6.28;1.50;;;;;;;;;;5069559;28;20040;-60
2022/07/29 14:16:55;;;;;;;5.40;1.60;;;;;;;;;;5069175;28;20055;-60
2022/07/29 14:19:21;;;;;;;7.32;2.00;;;;;;;;;;5069730;28;20047;-60
2022/07/29 14:21:47;;;;;;;4.13;1.45;;;;;;;;;;5069501;28;20040;-61
2022/07/29 14:24:13;;;;;;;4.60;1.52;;;;;;;;;;5069354;28;20064;-61
2022/07/29 14:26:39;;;;;;;7.00;1.67;;;;;;;;;;5069311;28;20048;-60
2022/07/29 14:29:05;;;;;;;6.00;1.52;;;;;;;;;;5068674;28;20076;-60
2022/07/29 14:31:31;;;;;;;4.78;1.60;;;;;;;;;;5068701;28;20137;-60
2022/07/29 14:33:57;;;;;;;5.10;1.45;;;;;;;;;;5069629;28;20415;-60
2022/07/29 14:36:23;;;;;;;3.45;1.10;;;;;;;;;;5069883;28;20438;-60
2022/07/29 14:38:49;;;;;;;6.07;1.38;;;;;;;;;;5069756;28;20058;-60
2022/07/29 14:41:15;;;;;;;3.97;1.65;;;;;;;;;;5070015;28;20059;-60
2022/07/29 14:43:42;;;;;;;4.65;1.63;;;;;;;;;;5069071;28;20060;-60
2022/07/29 14:46:08;;;;;;;5.53;1.52;;;;;;;;;;5069781;28;20049;-60
2022/07/29 14:48:34;;;;;;;4.00;1.33;;;;;;;;;;5069707;28;20040;-60
2022/07/29 14:51:00;;;;;;;4.72;1.60;;;;;;;;;;5069709;28;20044;-59